.
WxDataArchive / Data Records for 2009-01-03
2009-01-02 January 2009 2009-01-04

Data Records for Saturday, 03 January 2009

Time	Temp	Chill	HIndex	Humid	Dewpt	 Wind 	HiWind	WindDir	Rain 	Barom 
-----	----	-----	------	-----	-----	------	------	-------	-----	----- 
00:00	17.0	17.0	17.0	82	12.5	0	0	---	0.00	30.084 
00:05	16.9	16.9	16.9	82	12.4	0	0	---	0.00	30.090 
00:10	16.9	16.9	16.9	83	12.6	0	0	---	0.00	30.086 
00:15	16.7	16.7	16.7	83	12.5	0	0	---	0.00	30.085 
00:20	16.7	16.7	16.7	83	12.5	0	0	---	0.00	30.087 
00:25	16.5	16.5	16.5	83	12.3	0	0	---	0.00	30.097 
00:30	16.5	16.5	16.5	83	12.3	0	0	---	0.00	30.100 
00:35	16.4	16.4	16.4	83	12.2	0	0	---	0.00	30.100 
00:40	16.4	16.4	16.4	83	12.2	0	0	---	0.00	30.100 
00:45	16.2	16.2	16.2	83	12.0	0	0	---	0.00	30.100 
00:50	16.1	16.1	16.1	83	11.9	0	0	---	0.00	30.100 
00:55	16.1	16.1	16.1	84	12.1	0	0	---	0.00	30.103 
01:00	16.1	16.1	16.1	84	12.1	0	0	---	0.00	30.108 
01:05	15.9	15.9	15.9	84	11.9	0	0	---	0.00	30.105 
01:10	15.9	15.9	15.9	84	11.9	0	0	---	0.00	30.102 
01:15	15.7	15.7	15.7	84	11.7	0	0	---	0.00	30.106 
01:20	15.7	15.7	15.7	84	11.7	0	0	---	0.00	30.109 
01:25	15.6	15.6	15.6	84	11.6	0	0	---	0.00	30.109 
01:30	15.6	15.6	15.6	84	11.6	0	0	---	0.00	30.112 
01:35	15.6	15.6	15.6	84	11.6	0	0	---	0.00	30.109 
01:40	15.6	15.6	15.6	84	11.6	0	0	---	0.00	30.107 
01:45	15.6	15.6	15.6	85	11.9	0	0	---	0.00	30.102 
01:50	15.6	15.6	15.6	85	11.9	0	0	---	0.00	30.100 
01:55	15.7	15.7	15.7	85	12.0	0	0	---	0.00	30.102 
02:00	15.9	15.9	15.9	85	12.2	0	0	---	0.00	30.113 
02:05	16.1	16.1	16.1	86	12.7	0	1	315	0.00	30.111 
02:10	16.2	16.2	16.2	86	12.8	0	0	---	0.00	30.105 
02:15	16.2	16.2	16.2	86	12.8	0	0	---	0.00	30.112 
02:20	16.2	16.2	16.2	86	12.8	0	0	---	0.00	30.115 
02:25	16.2	16.2	16.2	85	12.5	0	0	---	0.00	30.117 
02:30	16.1	16.1	16.1	85	12.4	0	0	---	0.00	30.123 
02:35	16.1	16.1	16.1	85	12.4	0	0	---	0.00	30.124 
02:40	15.9	15.9	15.9	85	12.2	0	0	---	0.00	30.126 
02:45	15.7	15.7	15.7	85	12.0	0	0	---	0.00	30.130 
02:50	15.7	15.7	15.7	85	12.0	0	0	---	0.00	30.131 
02:55	15.6	15.6	15.6	85	11.9	0	0	---	0.00	30.133 
03:00	15.6	15.6	15.6	85	11.9	0	0	---	0.00	30.133 
03:05	15.4	15.4	15.4	86	12.0	0	0	---	0.00	30.134 
03:10	15.4	15.4	15.4	85	11.7	0	0	---	0.00	30.137 
03:15	15.2	15.2	15.2	86	11.8	0	0	---	0.00	30.135 
03:20	15.2	15.2	15.2	86	11.8	0	0	---	0.00	30.135 
03:25	15.1	15.1	15.1	86	11.7	0	0	---	0.00	30.137 
03:30	15.1	15.1	15.1	86	11.7	0	0	---	0.00	30.137 
03:35	15.1	15.1	15.1	86	11.7	0	0	---	0.00	30.139 
03:40	15.1	15.1	15.1	86	11.7	0	0	---	0.00	30.137 
03:45	14.9	14.9	14.9	86	11.5	0	0	---	0.00	30.139 
03:50	14.9	14.9	14.9	86	11.5	0	0	---	0.00	30.143 
03:55	14.8	14.8	14.8	86	11.4	0	0	---	0.00	30.136 
04:00	14.8	14.8	14.8	86	11.4	0	0	---	0.00	30.143 
04:05	14.8	14.8	14.8	86	11.4	0	0	---	0.00	30.148 
04:10	14.8	14.8	14.8	86	11.4	0	0	---	0.00	30.147 
04:15	14.6	14.6	14.6	87	11.4	0	0	---	0.00	30.144 
04:20	14.6	14.6	14.6	87	11.4	0	0	---	0.00	30.144 
04:25	14.6	14.6	14.6	87	11.4	0	0	---	0.00	30.141 
04:30	14.6	14.6	14.6	87	11.4	0	0	---	0.00	30.138 
04:35	14.6	14.6	14.6	87	11.4	0	1	315	0.00	30.137 
04:40	14.8	14.8	14.8	87	11.6	0	0	---	0.00	30.136 
04:45	14.9	14.9	14.9	87	11.7	0	0	---	0.00	30.136 
04:50	15.1	15.1	15.1	88	12.2	0	0	---	0.00	30.135 
04:55	15.2	15.2	15.2	88	12.3	0	0	---	0.00	30.130 
05:00	15.2	15.2	15.2	88	12.3	0	0	---	0.00	30.132 
05:05	15.2	15.2	15.2	88	12.3	0	0	---	0.00	30.133 
05:10	15.4	15.4	15.4	88	12.5	0	1	315	0.00	30.131 
05:15	16.1	16.1	16.1	88	13.2	0	1	338	0.00	30.130 
05:20	16.7	16.7	16.7	88	13.8	0	1	338	0.00	30.134 
05:25	17.0	17.0	17.0	87	13.8	0	2	338	0.00	30.137 
05:30	17.2	17.2	17.2	85	13.5	0	1	0	0.00	30.140 
05:35	17.3	17.3	17.3	84	13.3	0	1	0	0.00	30.149 
05:40	17.3	17.3	17.3	84	13.3	0	1	0	0.00	30.150 
05:45	17.2	17.2	17.2	84	13.2	0	0	---	0.00	30.150 
05:50	17.2	17.2	17.2	84	13.2	0	1	0	0.00	30.151 
05:55	17.0	17.0	17.0	84	13.0	0	1	0	0.00	30.150 
06:00	17.0	17.0	17.0	83	12.7	0	2	0	0.00	30.151 
06:05	17.2	17.2	17.2	83	12.9	1	3	68	0.00	30.153 
06:10	17.2	17.2	17.2	83	12.9	1	2	68	0.00	30.153 
06:15	17.3	17.3	17.3	82	12.8	1	3	68	0.00	30.152 
06:20	17.3	17.3	17.3	81	12.5	1	3	68	0.00	30.153 
06:25	17.3	17.3	17.3	81	12.5	1	3	68	0.00	30.154 
06:30	17.3	17.3	17.3	81	12.5	1	3	68	0.00	30.156 
06:35	17.3	17.3	17.3	81	12.5	1	3	68	0.00	30.156 
06:40	17.2	17.2	17.2	81	12.4	1	2	68	0.00	30.155 
06:45	17.2	17.2	17.2	81	12.4	1	4	68	0.00	30.156 
06:50	17.2	17.2	17.2	81	12.4	1	5	90	0.00	30.161 
06:55	17.0	17.0	17.0	81	12.2	1	3	90	0.00	30.165 
07:00	17.0	17.0	17.0	81	12.2	1	6	90	0.00	30.165 
07:05	17.0	17.0	17.0	81	12.2	1	4	90	0.00	30.163 
07:10	17.0	17.0	17.0	81	12.2	1	3	90	0.00	30.165 
07:15	17.0	17.0	17.0	81	12.2	1	3	90	0.00	30.167 
07:20	17.0	17.0	17.0	81	12.2	1	3	90	0.00	30.168 
07:25	17.0	17.0	17.0	81	12.2	0	3	90	0.00	30.170 
07:30	16.9	16.9	16.9	81	12.1	1	3	90	0.00	30.160 
07:35	16.9	16.9	16.9	81	12.1	1	4	90	0.00	30.158 
07:40	16.7	16.7	16.7	81	11.9	1	3	90	0.00	30.164 
07:45	16.7	16.7	16.7	81	11.9	0	2	90	0.00	30.170 
07:50	16.7	16.7	16.7	81	11.9	0	2	90	0.00	30.172 
07:55	16.7	16.7	16.7	81	11.9	0	1	90	0.00	30.173 
08:00	16.7	16.7	16.7	81	11.9	0	2	90	0.00	30.183 
08:05	16.9	16.9	16.9	81	12.1	1	2	90	0.00	30.177 
08:10	16.9	16.9	16.9	81	12.1	1	3	90	0.00	30.183 
08:15	17.0	17.0	17.0	81	12.2	1	2	90	0.00	30.187 
08:20	17.2	17.2	17.2	82	12.7	1	3	90	0.00	30.189 
08:25	17.3	17.3	17.3	81	12.5	0	2	90	0.00	30.196 
08:30	17.3	17.3	17.3	81	12.5	1	4	90	0.00	30.198 
08:35	17.5	17.5	17.5	82	13.0	1	3	90	0.00	30.192 
08:40	17.5	17.5	17.5	82	13.0	1	2	90	0.00	30.193 
08:45	17.8	17.8	17.8	82	13.3	2	4	90	0.00	30.192 
08:50	18.3	18.3	18.3	81	13.5	2	4	112	0.00	30.198 
08:55	18.6	18.6	18.6	81	13.8	1	4	112	0.00	30.195 
09:00	18.9	18.9	18.9	80	13.8	3	5	112	0.00	30.202 
09:05	19.2	19.2	19.2	79	13.8	3	5	90	0.00	30.207 
09:10	19.4	19.4	19.4	79	14.0	2	6	90	0.00	30.214 
09:15	19.7	19.7	19.7	79	14.3	2	7	112	0.00	30.208 
09:20	20.0	20.0	20.0	79	14.6	2	7	90	0.00	30.208 
09:25	20.2	20.2	20.2	79	14.8	3	7	112	0.00	30.207 
09:30	20.5	20.5	20.5	78	14.8	3	7	112	0.00	30.207 
09:35	20.8	15.1	20.8	77	14.7	4	9	112	0.00	30.205 
09:40	21.3	15.7	21.3	76	14.9	4	9	90	0.00	30.205 
09:45	21.4	15.8	21.4	76	15.0	4	10	90	0.00	30.205 
09:50	21.8	16.3	21.8	75	15.1	4	9	90	0.00	30.202 
09:55	21.9	16.4	21.9	75	15.2	4	10	112	0.00	30.200 
10:00	22.1	15.4	22.1	74	15.1	5	9	112	0.00	30.200 
10:05	22.5	17.1	22.5	74	15.5	4	9	90	0.00	30.200 
10:10	22.7	16.2	22.7	73	15.4	5	11	112	0.00	30.200 
10:15	23.0	17.7	23.0	73	15.7	4	9	90	0.00	30.201 
10:20	23.0	17.7	23.0	73	15.7	4	11	112	0.00	30.200 
10:25	23.3	23.3	23.3	73	15.9	2	7	112	0.00	30.198 
10:30	23.8	18.6	23.8	73	16.4	4	12	90	0.00	30.196 
10:35	23.9	18.7	23.9	72	16.2	4	10	112	0.00	30.197 
10:40	24.4	19.3	24.4	71	16.4	4	9	112	0.00	30.198 
10:45	24.5	19.4	24.5	70	16.1	4	11	90	0.00	30.194 
10:50	24.7	24.7	24.7	70	16.3	3	7	112	0.00	30.191 
10:55	25.0	18.9	25.0	70	16.6	5	11	112	0.00	30.189 
11:00	25.0	18.9	25.0	69	16.3	5	10	90	0.00	30.190 
11:05	25.3	20.3	25.3	70	16.9	4	8	90	0.00	30.188 
11:10	25.6	20.7	25.6	69	16.9	4	11	90	0.00	30.187 
11:15	25.7	20.8	25.7	68	16.6	4	8	112	0.00	30.185 
11:20	26.1	26.1	26.1	69	17.3	3	6	90	0.00	30.185 
11:25	26.4	21.6	26.4	69	17.6	4	10	90	0.00	30.184 
11:30	26.6	21.8	26.6	67	17.1	4	9	112	0.00	30.182 
11:35	26.7	22.0	26.7	66	16.9	4	11	112	0.00	30.184 
11:40	26.9	21.1	26.9	66	17.1	5	12	112	0.00	30.183 
11:45	27.2	27.2	27.2	67	17.7	3	6	112	0.00	30.184 
11:50	27.5	21.8	27.5	65	17.3	5	12	90	0.00	30.182 
11:55	27.6	27.6	27.6	66	17.8	3	7	90	0.00	30.181 
12:00	27.8	22.1	27.8	65	17.6	5	12	90	0.00	30.173 
12:05	27.8	22.1	27.8	65	17.6	5	9	90	0.00	30.170 
12:10	28.1	22.5	28.1	65	17.9	5	11	112	0.00	30.169 
12:15	27.9	23.3	27.9	64	17.3	4	10	112	0.00	30.168 
12:20	27.9	22.3	27.9	64	17.3	5	13	90	0.00	30.165 
12:25	27.8	21.2	27.8	64	17.2	6	11	90	0.00	30.161 
12:30	27.9	22.3	27.9	65	17.7	5	10	90	0.00	30.154 
12:35	28.7	28.7	28.7	65	18.4	2	7	90	0.00	30.154 
12:40	28.8	22.4	28.8	63	17.8	6	13	90	0.00	30.152 
12:45	29.1	23.7	29.1	63	18.1	5	12	112	0.00	30.151 
12:50	29.3	23.0	29.3	63	18.3	6	12	90	0.00	30.149 
12:55	29.3	23.0	29.3	62	17.9	6	13	90	0.00	30.148 
13:00	29.5	25.2	29.5	59	17.0	4	10	90	0.00	30.146 
13:05	29.7	23.5	29.7	62	18.3	6	12	90	0.00	30.142 
13:10	30.0	24.7	30.0	60	17.8	5	13	90	0.00	30.142 
13:15	30.0	23.8	30.0	61	18.2	6	15	112	0.00	30.143 
13:20	30.3	25.1	30.3	60	18.1	5	12	112	0.00	30.140 
13:25	30.3	24.2	30.3	60	18.1	6	12	112	0.00	30.143 
13:30	30.7	26.6	30.7	60	18.5	4	11	90	0.00	30.140 
13:35	30.7	25.5	30.7	59	18.1	5	10	112	0.00	30.138 
13:40	30.9	25.8	30.9	59	18.3	5	11	90	0.00	30.139 
13:45	31.2	26.1	31.2	58	18.2	5	13	90	0.00	30.137 
13:50	31.5	25.6	31.5	58	18.4	6	13	90	0.00	30.136 
13:55	31.6	25.8	31.6	58	18.5	6	12	90	0.00	30.134 
14:00	31.8	27.8	31.8	59	19.1	4	9	112	0.00	30.134 
14:05	31.8	26.0	31.8	58	18.7	6	11	112	0.00	30.131 
14:10	31.6	25.8	31.6	59	18.9	6	13	112	0.00	30.126 
14:15	31.6	25.8	31.6	58	18.5	6	11	90	0.00	30.118 
14:20	31.6	25.0	31.6	59	18.9	7	14	90	0.00	30.119 
14:25	31.6	26.6	31.6	59	18.9	5	12	90	0.00	30.120 
14:30	31.8	26.0	31.8	58	18.7	6	11	112	0.00	30.120 
14:35	31.8	27.8	31.8	59	19.1	4	14	90	0.00	30.122 
14:40	31.8	26.8	31.8	58	18.7	5	11	112	0.00	30.131 
14:45	31.8	26.0	31.8	58	18.7	6	11	112	0.00	30.128 
14:50	31.8	26.8	31.8	59	19.1	5	11	90	0.00	30.127 
14:55	31.9	26.1	31.9	58	18.8	6	13	112	0.00	30.123 
15:00	31.9	26.1	31.9	58	18.8	6	14	112	0.00	30.121 
15:05	31.8	26.0	31.8	59	19.1	6	14	90	0.00	30.134 
15:10	31.6	25.8	31.6	59	18.9	6	11	112	0.00	30.134 
15:15	31.6	25.8	31.6	60	19.3	6	12	112	0.00	30.134 
15:20	31.6	25.8	31.6	60	19.3	6	16	90	0.00	30.130 
15:25	31.6	26.6	31.6	61	19.7	5	14	112	0.00	30.124 
15:30	31.8	27.8	31.8	61	19.9	4	11	90	0.00	30.123 
15:35	31.8	26.0	31.8	61	19.9	6	13	90	0.00	30.119 
15:40	31.8	26.0	31.8	60	19.5	6	17	90	0.00	30.119 
15:45	31.8	26.0	31.8	61	19.9	6	12	90	0.00	30.119 
15:50	31.9	26.1	31.9	61	20.0	6	14	90	0.00	30.119 
15:55	31.8	25.3	31.8	61	19.9	7	11	112	0.00	30.120 
16:00	31.9	25.4	31.9	61	20.0	7	13	112	0.00	30.119 
16:05	31.9	25.4	31.9	60	19.6	7	18	112	0.00	30.120 
16:10	31.9	27.0	31.9	61	20.0	5	11	90	0.00	30.120 
16:15	31.9	26.1	31.9	61	20.0	6	14	112	0.00	30.117 
16:20	31.9	25.4	31.9	61	20.0	7	15	112	0.00	30.105 
16:25	31.9	25.4	31.9	62	20.4	7	13	112	0.00	30.104 
16:30	31.8	24.6	31.8	61	19.9	8	14	90	0.00	30.105 
16:35	31.8	26.0	31.8	62	20.3	6	17	112	0.00	30.103 
16:40	31.6	26.6	31.6	62	20.1	5	13	90	0.00	30.104 
16:45	31.5	24.9	31.5	63	20.4	7	13	112	0.00	30.104 
16:50	31.5	25.6	31.5	64	20.7	6	13	90	0.00	30.108 
16:55	31.3	24.0	31.3	63	20.2	8	17	112	0.00	30.106 
17:00	31.3	24.7	31.3	64	20.6	7	13	90	0.00	30.116 
17:05	31.2	25.3	31.2	64	20.5	6	13	90	0.00	30.116 
17:10	31.0	25.9	31.0	65	20.6	5	11	112	0.00	30.115 
17:15	30.9	24.9	30.9	65	20.5	6	13	90	0.00	30.105 
17:20	30.7	24.7	30.7	65	20.3	6	13	112	0.00	30.104 
17:25	30.7	25.5	30.7	66	20.7	5	13	90	0.00	30.110 
17:30	30.6	26.5	30.6	66	20.6	4	12	90	0.00	30.117 
17:35	30.6	26.5	30.6	66	20.6	4	11	90	0.00	30.118 
17:40	30.4	30.4	30.4	66	20.4	3	9	112	0.00	30.125 
17:45	30.4	25.2	30.4	66	20.4	5	10	90	0.00	30.122 
17:50	30.6	25.4	30.6	66	20.6	5	10	90	0.00	30.122 
17:55	30.6	26.5	30.6	66	20.6	4	9	112	0.00	30.121 
18:00	30.7	26.6	30.7	66	20.7	4	8	112	0.00	30.121 
18:05	30.7	26.6	30.7	66	20.7	4	9	90	0.00	30.119 
18:10	30.9	25.8	30.9	65	20.5	5	10	90	0.00	30.118 
18:15	30.9	24.9	30.9	66	20.9	6	14	90	0.00	30.112 
18:20	31.0	25.9	31.0	66	21.0	5	11	112	0.00	30.114 
18:25	31.0	26.9	31.0	66	21.0	4	11	112	0.00	30.118 
18:30	31.0	26.9	31.0	66	21.0	4	10	90	0.00	30.120 
18:35	31.0	25.9	31.0	66	21.0	5	13	112	0.00	30.118 
18:40	31.0	26.9	31.0	66	21.0	4	12	112	0.00	30.119 
18:45	31.0	25.0	31.0	66	21.0	6	12	112	0.00	30.116 
18:50	31.0	26.9	31.0	67	21.3	4	11	112	0.00	30.114 
18:55	31.0	25.0	31.0	67	21.3	6	11	112	0.00	30.115 
19:00	31.2	26.1	31.2	67	21.5	5	9	90	0.00	30.111 
19:05	31.2	26.1	31.2	67	21.5	5	11	90	0.00	30.114 
19:10	31.2	25.3	31.2	67	21.5	6	11	90	0.00	30.115 
19:15	31.2	24.5	31.2	67	21.5	7	13	112	0.00	30.115 
19:20	31.2	25.3	31.2	67	21.5	6	14	112	0.00	30.114 
19:25	31.2	24.5	31.2	67	21.5	7	14	112	0.00	30.114 
19:30	31.2	25.3	31.2	66	21.2	6	11	112	0.00	30.113 
19:35	31.2	25.3	31.2	66	21.2	6	12	112	0.00	30.116 
19:40	31.0	24.3	31.0	66	21.0	7	16	112	0.00	30.117 
19:45	31.0	25.0	31.0	66	21.0	6	12	112	0.00	30.116 
19:50	31.0	24.3	31.0	66	21.0	7	12	112	0.00	30.114 
19:55	31.0	24.3	31.0	66	21.0	7	15	112	0.00	30.113 
20:00	31.0	25.0	31.0	67	21.3	6	14	112	0.00	30.111 
20:05	31.0	25.9	31.0	67	21.3	5	11	112	0.00	30.102 
20:10	30.9	24.9	30.9	68	21.6	6	14	112	0.00	30.099 
20:15	30.9	24.9	30.9	68	21.6	6	13	112	0.00	30.097 
20:20	30.7	25.5	30.7	69	21.8	5	12	90	0.00	30.101 
20:25	30.6	24.6	30.6	70	22.0	6	11	112	0.00	30.106 
20:30	30.4	24.3	30.4	71	22.1	6	13	90	0.00	30.102 
20:35	30.3	23.4	30.3	71	22.0	7	14	112	0.00	30.102 
20:40	30.1	24.0	30.1	72	22.2	6	13	90	0.00	30.101 
20:45	30.1	23.2	30.1	72	22.2	7	14	112	0.00	30.101 
20:50	30.1	24.0	30.1	72	22.2	6	13	90	0.00	30.101 
20:55	30.1	22.5	30.1	72	22.2	8	16	112	0.00	30.101 
21:00	30.0	23.1	30.0	72	22.1	7	13	90	0.00	30.102 
21:05	30.0	23.1	30.0	72	22.1	7	13	90	0.00	30.095 
21:10	30.0	22.4	30.0	72	22.1	8	15	90	0.00	30.096 
21:15	30.0	23.1	30.0	72	22.1	7	15	112	0.00	30.092 
21:20	29.8	23.6	29.8	73	22.2	6	12	90	0.00	30.097 
21:25	29.8	22.8	29.8	73	22.2	7	14	90	0.00	30.100 
21:30	29.8	23.6	29.8	73	22.2	6	12	90	0.00	30.098 
21:35	29.8	24.5	29.8	73	22.2	5	13	90	0.00	30.101 
21:40	29.8	24.5	29.8	73	22.2	5	13	90	0.00	30.104 
21:45	29.8	23.6	29.8	73	22.2	6	13	90	0.00	30.105 
21:50	29.8	23.6	29.8	73	22.2	6	12	112	0.00	30.103 
21:55	29.8	23.6	29.8	73	22.2	6	12	90	0.00	30.099 
22:00	29.8	24.5	29.8	73	22.2	5	11	90	0.00	30.100 
22:05	29.8	25.5	29.8	73	22.2	4	9	90	0.00	30.097 
22:10	30.0	24.7	30.0	73	22.4	5	9	90	0.00	30.093 
22:15	30.0	23.8	30.0	73	22.4	6	11	90	0.00	30.091 
22:20	30.0	23.8	30.0	73	22.4	6	12	112	0.00	30.094 
22:25	30.0	23.8	30.0	73	22.4	6	11	90	0.00	30.093 
22:30	30.1	24.0	30.1	72	22.2	6	12	112	0.00	30.093 
22:35	30.1	24.8	30.1	72	22.2	5	10	90	0.00	30.087 
22:40	30.1	24.8	30.1	72	22.2	5	9	90	0.00	30.089 
22:45	30.1	24.8	30.1	71	21.9	5	10	112	0.00	30.091 
22:50	30.1	24.8	30.1	72	22.2	5	11	90	0.00	30.082 
22:55	30.1	24.0	30.1	71	21.9	6	11	90	0.00	30.080 
23:00	30.1	24.8	30.1	72	22.2	5	10	112	0.00	30.079 
23:05	30.1	24.8	30.1	73	22.5	5	12	90	0.00	30.071 
23:10	30.1	24.0	30.1	73	22.5	6	10	112	0.00	30.068 
23:15	30.1	24.8	30.1	74	22.8	5	9	90	0.00	30.067 
23:20	30.0	23.8	30.0	74	22.7	6	11	112	0.00	30.068 
23:25	30.0	24.7	30.0	76	23.4	5	13	90	0.00	30.067 
23:30	29.8	23.6	29.8	75	22.9	6	15	112	0.00	30.070 
23:35	29.8	23.6	29.8	75	22.9	6	13	112	0.00	30.070 
23:40	29.8	23.6	29.8	76	23.2	6	13	112	0.00	30.075 
23:45	29.8	24.5	29.8	77	23.5	5	10	90	0.00	30.072 
23:50	29.8	25.5	29.8	77	23.5	4	11	112	0.00	30.072 
23:55	29.8	25.5	29.8	77	23.5	4	9	90	0.00	30.072 

CoCoRaHS
IN-AL-39
A2 Web Hosting
Creative Commons License
GoDaddy
search engine by freefind advanced

loaded 2018-11-13 21:23:27 • last modified 2010-11-18 10:43:29
Privacy PolicyDisclaimer
• wx.awcolley.com is powered by PmWiki v.2002016 •
• all content (unless otherwise noted) © 2018 A W Colley